sensor_id;sensor_type;location;lat;lon;timestamp;pressure;altitude;pressure_sealevel;temperature;humidity
929;BME280;451;47.988;7.842;2022-09-20T00:08:17;99026.69;;;9.10;100.00
929;BME280;451;47.988;7.842;2022-09-20T00:17:19;98972.03;;;8.61;100.00
929;BME280;451;47.988;7.842;2022-09-20T00:26:20;99002.00;;;8.76;100.00
929;BME280;451;47.988;7.842;2022-09-20T00:35:23;99009.84;;;8.85;100.00
929;BME280;451;47.988;7.842;2022-09-20T00:53:53;98995.09;;;8.75;100.00
929;BME280;451;47.988;7.842;2022-09-20T01:03:01;99009.47;;;8.71;100.00
929;BME280;451;47.988;7.842;2022-09-20T01:12:08;99030.75;;;8.68;100.00
929;BME280;451;47.988;7.842;2022-09-20T01:21:13;98901.81;;;7.90;100.00
929;BME280;451;47.988;7.842;2022-09-20T01:30:31;99008.72;;;8.61;100.00
929;BME280;451;47.988;7.842;2022-09-20T01:48:47;98974.19;;;8.28;100.00
929;BME280;451;47.988;7.842;2022-09-20T02:07:49;99017.47;;;8.23;100.00
929;BME280;451;47.988;7.842;2022-09-20T02:16:57;98999.19;;;7.94;100.00
929;BME280;451;47.988;7.842;2022-09-20T02:53:36;99005.66;;;8.09;100.00
929;BME280;451;47.988;7.842;2022-09-20T03:21:41;99005.34;;;8.12;100.00
929;BME280;451;47.988;7.842;2022-09-20T03:31:03;99018.22;;;7.96;100.00
929;BME280;451;47.988;7.842;2022-09-20T03:40:14;99014.91;;;7.94;100.00
929;BME280;451;47.988;7.842;2022-09-20T04:08:21;99029.94;;;7.82;100.00
929;BME280;451;47.988;7.842;2022-09-20T04:27:02;99029.50;;;7.96;100.00
929;BME280;451;47.988;7.842;2022-09-20T04:36:09;99045.38;;;7.85;100.00
929;BME280;451;47.988;7.842;2022-09-20T04:45:53;98990.84;;;7.23;100.00
929;BME280;451;47.988;7.842;2022-09-20T04:55:08;99055.00;;;7.65;100.00
929;BME280;451;47.988;7.842;2022-09-20T05:23:23;99064.94;;;7.72;100.00
929;BME280;451;47.988;7.842;2022-09-20T05:32:41;99069.88;;;7.65;100.00
929;BME280;451;47.988;7.842;2022-09-20T05:50:58;99068.50;;;8.09;100.00
929;BME280;451;47.988;7.842;2022-09-20T06:18:20;99110.31;;;8.76;100.00
929;BME280;451;47.988;7.842;2022-09-20T06:27:28;99103.72;;;9.37;100.00
929;BME280;451;47.988;7.842;2022-09-20T06:36:34;99107.31;;;9.36;100.00
929;BME280;451;47.988;7.842;2022-09-20T06:45:55;99061.06;;;9.25;100.00
929;BME280;451;47.988;7.842;2022-09-20T06:54:57;99082.38;;;9.85;100.00
929;BME280;451;47.988;7.842;2022-09-20T07:03:59;99108.34;;;11.01;100.00
929;BME280;451;47.988;7.842;2022-09-20T07:13:01;99123.44;;;10.90;100.00
929;BME280;451;47.988;7.842;2022-09-20T07:22:03;99075.78;;;11.36;100.00
929;BME280;451;47.988;7.842;2022-09-20T07:31:05;99110.81;;;11.36;100.00
929;BME280;451;47.988;7.842;2022-09-20T07:40:09;99099.78;;;12.31;100.00
929;BME280;451;47.988;7.842;2022-09-20T07:49:11;99036.00;;;12.44;100.00
929;BME280;451;47.988;7.842;2022-09-20T07:58:12;99055.19;;;12.85;100.00
929;BME280;451;47.988;7.842;2022-09-20T08:07:14;99105.34;;;14.17;100.00
929;BME280;451;47.988;7.842;2022-09-20T08:16:16;99100.69;;;14.19;100.00
929;BME280;451;47.988;7.842;2022-09-20T08:25:18;99019.56;;;13.96;100.00
929;BME280;451;47.988;7.842;2022-09-20T08:34:19;99034.56;;;14.19;99.93
929;BME280;451;47.988;7.842;2022-09-20T08:43:22;99101.81;;;14.47;100.00
929;BME280;451;47.988;7.842;2022-09-20T08:52:31;99130.91;;;15.14;97.72
929;BME280;451;47.988;7.842;2022-09-20T09:01:35;99120.16;;;16.44;88.25
929;BME280;451;47.988;7.842;2022-09-20T09:10:38;99104.41;;;15.14;95.77
929;BME280;451;47.988;7.842;2022-09-20T09:19:54;99114.91;;;15.37;95.62
929;BME280;451;47.988;7.842;2022-09-20T09:29:10;99121.50;;;15.41;96.51
929;BME280;451;47.988;7.842;2022-09-20T09:38:20;99129.59;;;15.68;93.70
929;BME280;451;47.988;7.842;2022-09-20T09:47:26;99117.13;;;15.84;92.47
929;BME280;451;47.988;7.842;2022-09-20T10:15:42;99063.31;;;16.32;90.97
929;BME280;451;47.988;7.842;2022-09-20T10:25:18;99094.97;;;16.12;88.98
929;BME280;451;47.988;7.842;2022-09-20T10:34:58;99079.56;;;16.72;83.48
929;BME280;451;47.988;7.842;2022-09-20T10:53:32;99072.94;;;17.30;70.40
929;BME280;451;47.988;7.842;2022-09-20T11:02:44;99064.28;;;17.15;72.67
929;BME280;451;47.988;7.842;2022-09-20T11:21:24;99059.53;;;17.58;74.05
929;BME280;451;47.988;7.842;2022-09-20T11:30:29;99069.63;;;18.94;70.56
929;BME280;451;47.988;7.842;2022-09-20T11:39:43;99080.94;;;18.50;66.24
929;BME280;451;47.988;7.842;2022-09-20T11:58:04;99060.88;;;18.28;66.28
929;BME280;451;47.988;7.842;2022-09-20T12:07:16;98981.47;;;17.92;61.45
929;BME280;451;47.988;7.842;2022-09-20T12:16:36;98928.19;;;17.46;61.34
929;BME280;451;47.988;7.842;2022-09-20T12:25:38;99059.25;;;18.13;52.33
929;BME280;451;47.988;7.842;2022-09-20T12:34:40;99057.22;;;18.29;45.11
929;BME280;451;47.988;7.842;2022-09-20T12:52:54;99025.63;;;18.52;56.24
929;BME280;451;47.988;7.842;2022-09-20T13:11:41;99000.91;;;17.18;54.36
929;BME280;451;47.988;7.842;2022-09-20T13:20:44;98998.16;;;17.53;51.78
929;BME280;451;47.988;7.842;2022-09-20T13:29:46;99001.50;;;18.27;55.59
929;BME280;451;47.988;7.842;2022-09-20T13:38:48;99026.28;;;18.08;54.50
929;BME280;451;47.988;7.842;2022-09-20T13:47:52;99017.09;;;18.10;52.76
929;BME280;451;47.988;7.842;2022-09-20T13:56:58;99026.69;;;17.85;49.97
929;BME280;451;47.988;7.842;2022-09-20T14:06:12;99025.22;;;17.76;49.97
929;BME280;451;47.988;7.842;2022-09-20T14:15:15;99002.75;;;17.98;49.49
929;BME280;451;47.988;7.842;2022-09-20T14:24:26;99020.75;;;18.29;45.89
929;BME280;451;47.988;7.842;2022-09-20T14:33:29;98990.47;;;17.97;45.60
929;BME280;451;47.988;7.842;2022-09-20T14:42:38;98897.75;;;17.42;46.25
929;BME280;451;47.988;7.842;2022-09-20T14:51:41;98991.25;;;18.24;48.96
929;BME280;451;47.988;7.842;2022-09-20T15:01:22;99009.25;;;18.62;49.03
929;BME280;451;47.988;7.842;2022-09-20T15:10:24;98986.16;;;18.23;52.50
929;BME280;451;47.988;7.842;2022-09-20T15:19:26;98982.00;;;17.48;56.37
929;BME280;451;47.988;7.842;2022-09-20T15:28:28;98933.31;;;17.34;59.05
929;BME280;451;47.988;7.842;2022-09-20T15:37:33;99009.00;;;16.97;58.14
929;BME280;451;47.988;7.842;2022-09-20T15:46:35;98986.88;;;17.38;58.51
929;BME280;451;47.988;7.842;2022-09-20T15:55:37;99087.81;;;17.24;56.00
929;BME280;451;47.988;7.842;2022-09-20T16:04:38;99021.56;;;17.16;54.47
929;BME280;451;47.988;7.842;2022-09-20T16:13:40;99015.03;;;17.25;57.65
929;BME280;451;47.988;7.842;2022-09-20T16:22:42;98966.47;;;16.56;61.80
929;BME280;451;47.988;7.842;2022-09-20T16:31:50;99042.94;;;17.02;63.23
929;BME280;451;47.988;7.842;2022-09-20T16:40:51;99043.94;;;16.60;61.69
929;BME280;451;47.988;7.842;2022-09-20T16:49:56;98860.25;;;15.04;62.76
929;BME280;451;47.988;7.842;2022-09-20T16:58:58;99053.91;;;16.58;60.31
929;BME280;451;47.988;7.842;2022-09-20T17:08:00;98966.75;;;15.56;61.71
929;BME280;451;47.988;7.842;2022-09-20T17:17:03;99048.94;;;15.78;63.80
929;BME280;451;47.988;7.842;2022-09-20T17:26:09;99085.16;;;15.70;64.20
929;BME280;451;47.988;7.842;2022-09-20T17:35:13;99046.56;;;15.32;65.71
929;BME280;451;47.988;7.842;2022-09-20T17:44:16;99113.69;;;16.04;65.13
929;BME280;451;47.988;7.842;2022-09-20T17:53:18;99086.97;;;15.85;66.61
929;BME280;451;47.988;7.842;2022-09-20T18:02:19;98944.69;;;14.77;66.39
929;BME280;451;47.988;7.842;2022-09-20T18:11:27;99130.41;;;15.69;73.53
929;BME280;451;47.988;7.842;2022-09-20T18:20:29;99136.34;;;14.68;80.72
929;BME280;451;47.988;7.842;2022-09-20T18:29:31;99143.75;;;14.73;81.74
929;BME280;451;47.988;7.842;2022-09-20T18:38:36;99148.69;;;14.76;82.46
929;BME280;451;47.988;7.842;2022-09-20T18:47:39;99122.38;;;14.74;83.48
929;BME280;451;47.988;7.842;2022-09-20T18:56:45;99145.19;;;14.61;82.67
929;BME280;451;47.988;7.842;2022-09-20T19:05:50;99150.59;;;14.44;83.93
929;BME280;451;47.988;7.842;2022-09-20T19:33:23;99153.97;;;13.54;86.43
929;BME280;451;47.988;7.842;2022-09-20T19:51:54;99118.97;;;13.52;83.02
929;BME280;451;47.988;7.842;2022-09-20T20:00:57;99199.38;;;13.88;83.66
929;BME280;451;47.988;7.842;2022-09-20T20:19:28;99191.03;;;13.29;88.27
929;BME280;451;47.988;7.842;2022-09-20T20:28:33;99169.25;;;13.19;89.80
929;BME280;451;47.988;7.842;2022-09-20T20:37:35;99042.00;;;12.05;92.56
929;BME280;451;47.988;7.842;2022-09-20T20:46:39;99186.66;;;13.53;91.97
929;BME280;451;47.988;7.842;2022-09-20T20:55:41;99188.88;;;13.25;92.84
929;BME280;451;47.988;7.842;2022-09-20T21:04:43;99164.03;;;12.87;94.53
929;BME280;451;47.988;7.842;2022-09-20T21:13:45;99162.06;;;12.89;99.22
929;BME280;451;47.988;7.842;2022-09-20T21:22:48;99171.25;;;12.93;100.00
929;BME280;451;47.988;7.842;2022-09-20T21:31:50;99010.81;;;11.60;100.00
929;BME280;451;47.988;7.842;2022-09-20T21:50:12;99127.16;;;12.22;100.00
929;BME280;451;47.988;7.842;2022-09-20T21:59:14;99183.84;;;12.67;100.00
929;BME280;451;47.988;7.842;2022-09-20T22:08:16;99108.69;;;12.22;100.00
929;BME280;451;47.988;7.842;2022-09-20T22:17:19;99186.81;;;12.64;100.00
929;BME280;451;47.988;7.842;2022-09-20T22:26:20;99147.41;;;12.62;100.00
929;BME280;451;47.988;7.842;2022-09-20T22:35:22;99168.72;;;13.32;100.00
929;BME280;451;47.988;7.842;2022-09-20T22:44:24;99183.53;;;12.53;100.00
929;BME280;451;47.988;7.842;2022-09-20T22:53:27;99069.81;;;11.84;100.00
929;BME280;451;47.988;7.842;2022-09-20T23:02:29;99180.88;;;12.78;100.00
929;BME280;451;47.988;7.842;2022-09-20T23:11:31;99171.94;;;12.06;100.00
929;BME280;451;47.988;7.842;2022-09-20T23:20:33;99178.69;;;11.92;100.00
929;BME280;451;47.988;7.842;2022-09-20T23:29:34;99066.72;;;11.30;100.00
929;BME280;451;47.988;7.842;2022-09-20T23:38:36;99034.88;;;11.82;100.00
929;BME280;451;47.988;7.842;2022-09-20T23:47:38;99163.00;;;11.83;100.00
929;BME280;451;47.988;7.842;2022-09-20T23:56:39;99170.88;;;11.75;100.00
